sensor_id;sensor_type;location;lat;lon;timestamp;temperature;humidity
71367;DHT22;60030;52.274;8.040;2022-08-25T00:01:56;25.20;60.00
71367;DHT22;60030;52.274;8.040;2022-08-25T00:04:24;25.20;60.00
71367;DHT22;60030;52.274;8.040;2022-08-25T00:06:52;25.30;60.00
71367;DHT22;60030;52.274;8.040;2022-08-25T00:09:22;25.30;59.90
71367;DHT22;60030;52.274;8.040;2022-08-25T00:11:49;25.30;59.90
71367;DHT22;60030;52.274;8.040;2022-08-25T00:14:20;25.10;60.10
71367;DHT22;60030;52.274;8.040;2022-08-25T00:16:48;24.80;61.10
71367;DHT22;60030;52.274;8.040;2022-08-25T00:19:17;24.80;61.10
71367;DHT22;60030;52.274;8.040;2022-08-25T00:21:46;24.80;61.20
71367;DHT22;60030;52.274;8.040;2022-08-25T00:24:15;24.90;61.10
71367;DHT22;60030;52.274;8.040;2022-08-25T00:26:44;24.90;60.80
71367;DHT22;60030;52.274;8.040;2022-08-25T00:29:11;25.00;61.00
71367;DHT22;60030;52.274;8.040;2022-08-25T00:31:40;24.90;61.10
71367;DHT22;60030;52.274;8.040;2022-08-25T00:34:11;24.80;61.20
71367;DHT22;60030;52.274;8.040;2022-08-25T00:36:39;24.90;61.20
71367;DHT22;60030;52.274;8.040;2022-08-25T00:39:08;24.60;61.80
71367;DHT22;60030;52.274;8.040;2022-08-25T00:41:36;24.60;61.90
71367;DHT22;60030;52.274;8.040;2022-08-25T00:44:06;24.80;61.60
71367;DHT22;60030;52.274;8.040;2022-08-25T00:46:42;24.70;61.50
71367;DHT22;60030;52.274;8.040;2022-08-25T00:49:13;24.60;61.90
71367;DHT22;60030;52.274;8.040;2022-08-25T00:51:44;24.60;61.70
71367;DHT22;60030;52.274;8.040;2022-08-25T00:54:16;24.60;62.90
71367;DHT22;60030;52.274;8.040;2022-08-25T00:56:44;24.60;62.10
71367;DHT22;60030;52.274;8.040;2022-08-25T00:59:12;24.60;61.90
71367;DHT22;60030;52.274;8.040;2022-08-25T01:01:41;24.60;62.10
71367;DHT22;60030;52.274;8.040;2022-08-25T01:04:08;24.60;62.30
71367;DHT22;60030;52.274;8.040;2022-08-25T01:06:38;24.60;62.30
71367;DHT22;60030;52.274;8.040;2022-08-25T01:09:08;24.60;62.40
71367;DHT22;60030;52.274;8.040;2022-08-25T01:11:36;24.60;62.40
71367;DHT22;60030;52.274;8.040;2022-08-25T01:14:03;24.50;62.50
71367;DHT22;60030;52.274;8.040;2022-08-25T01:16:32;24.40;62.80
71367;DHT22;60030;52.274;8.040;2022-08-25T01:19:01;24.40;63.20
71367;DHT22;60030;52.274;8.040;2022-08-25T01:24:37;24.30;63.00
71367;DHT22;60030;52.274;8.040;2022-08-25T01:27:07;24.20;63.80
71367;DHT22;60030;52.274;8.040;2022-08-25T01:29:36;24.10;64.10
71367;DHT22;60030;52.274;8.040;2022-08-25T01:32:40;24.30;64.00
71367;DHT22;60030;52.274;8.040;2022-08-25T01:35:28;24.00;64.70
71367;DHT22;60030;52.274;8.040;2022-08-25T01:37:58;24.10;64.40
71367;DHT22;60030;52.274;8.040;2022-08-25T01:40:26;24.00;64.80
71367;DHT22;60030;52.274;8.040;2022-08-25T01:43:16;23.90;65.10
71367;DHT22;60030;52.274;8.040;2022-08-25T01:46:13;24.00;65.00
71367;DHT22;60030;52.274;8.040;2022-08-25T01:48:40;24.00;64.70
71367;DHT22;60030;52.274;8.040;2022-08-25T01:51:18;24.10;64.60
71367;DHT22;60030;52.274;8.040;2022-08-25T01:53:56;24.10;64.80
71367;DHT22;60030;52.274;8.040;2022-08-25T01:57:19;24.10;64.80
71367;DHT22;60030;52.274;8.040;2022-08-25T02:00:26;24.00;65.10
71367;DHT22;60030;52.274;8.040;2022-08-25T02:02:53;23.90;65.40
71367;DHT22;60030;52.274;8.040;2022-08-25T02:05:20;23.90;65.50
71367;DHT22;60030;52.274;8.040;2022-08-25T02:07:47;24.00;65.40
71367;DHT22;60030;52.274;8.040;2022-08-25T02:10:16;23.90;65.50
71367;DHT22;60030;52.274;8.040;2022-08-25T02:12:43;23.90;65.70
71367;DHT22;60030;52.274;8.040;2022-08-25T02:15:10;23.90;65.60
71367;DHT22;60030;52.274;8.040;2022-08-25T02:18:16;23.80;65.80
71367;DHT22;60030;52.274;8.040;2022-08-25T02:20:44;23.50;66.80
71367;DHT22;60030;52.274;8.040;2022-08-25T02:23:29;23.30;67.60
71367;DHT22;60030;52.274;8.040;2022-08-25T02:25:58;23.40;67.60
71367;DHT22;60030;52.274;8.040;2022-08-25T02:28:25;23.40;67.60
71367;DHT22;60030;52.274;8.040;2022-08-25T02:30:52;23.20;68.10
71367;DHT22;60030;52.274;8.040;2022-08-25T02:33:19;23.10;68.70
71367;DHT22;60030;52.274;8.040;2022-08-25T02:35:47;23.20;68.70
71367;DHT22;60030;52.274;8.040;2022-08-25T02:38:14;23.30;68.90
71367;DHT22;60030;52.274;8.040;2022-08-25T02:40:41;23.40;68.00
71367;DHT22;60030;52.274;8.040;2022-08-25T02:43:09;23.40;67.90
71367;DHT22;60030;52.274;8.040;2022-08-25T02:45:36;23.40;67.70
71367;DHT22;60030;52.274;8.040;2022-08-25T02:48:04;23.40;67.70
71367;DHT22;60030;52.274;8.040;2022-08-25T02:50:31;23.40;68.40
71367;DHT22;60030;52.274;8.040;2022-08-25T02:52:58;23.30;67.80
71367;DHT22;60030;52.274;8.040;2022-08-25T02:55:25;23.30;68.00
71367;DHT22;60030;52.274;8.040;2022-08-25T02:57:52;23.30;68.10
71367;DHT22;60030;52.274;8.040;2022-08-25T03:00:21;23.30;68.20
71367;DHT22;60030;52.274;8.040;2022-08-25T03:02:48;23.20;68.10
71367;DHT22;60030;52.274;8.040;2022-08-25T03:05:15;23.30;68.30
71367;DHT22;60030;52.274;8.040;2022-08-25T03:07:42;23.30;68.20
71367;DHT22;60030;52.274;8.040;2022-08-25T03:10:13;23.20;68.20
71367;DHT22;60030;52.274;8.040;2022-08-25T03:12:41;23.10;69.00
71367;DHT22;60030;52.274;8.040;2022-08-25T03:15:09;23.10;68.60
71367;DHT22;60030;52.274;8.040;2022-08-25T03:17:38;23.10;68.60
71367;DHT22;60030;52.274;8.040;2022-08-25T03:20:05;23.10;68.70
71367;DHT22;60030;52.274;8.040;2022-08-25T03:22:33;23.10;68.70
71367;DHT22;60030;52.274;8.040;2022-08-25T03:25:00;22.80;69.90
71367;DHT22;60030;52.274;8.040;2022-08-25T03:27:41;22.70;70.10
71367;DHT22;60030;52.274;8.040;2022-08-25T03:30:09;22.60;70.90
71367;DHT22;60030;52.274;8.040;2022-08-25T03:32:38;22.70;70.60
71367;DHT22;60030;52.274;8.040;2022-08-25T03:35:05;22.50;71.30
71367;DHT22;60030;52.274;8.040;2022-08-25T03:37:33;22.60;71.10
71367;DHT22;60030;52.274;8.040;2022-08-25T03:40:01;22.70;70.90
71367;DHT22;60030;52.274;8.040;2022-08-25T03:42:28;22.40;71.90
71367;DHT22;60030;52.274;8.040;2022-08-25T03:44:55;22.40;71.90
71367;DHT22;60030;52.274;8.040;2022-08-25T03:47:22;22.50;71.70
71367;DHT22;60030;52.274;8.040;2022-08-25T03:49:52;22.60;71.40
71367;DHT22;60030;52.274;8.040;2022-08-25T03:52:19;22.50;71.80
71367;DHT22;60030;52.274;8.040;2022-08-25T03:54:46;22.40;72.40
71367;DHT22;60030;52.274;8.040;2022-08-25T03:57:14;22.50;71.90
71367;DHT22;60030;52.274;8.040;2022-08-25T03:59:41;22.50;72.00
71367;DHT22;60030;52.274;8.040;2022-08-25T04:02:08;22.50;71.80
71367;DHT22;60030;52.274;8.040;2022-08-25T04:04:35;22.40;72.20
71367;DHT22;60030;52.274;8.040;2022-08-25T04:07:03;22.30;72.40
71367;DHT22;60030;52.274;8.040;2022-08-25T04:09:31;22.20;72.80
71367;DHT22;60030;52.274;8.040;2022-08-25T04:11:58;22.00;73.70
71367;DHT22;60030;52.274;8.040;2022-08-25T04:14:25;22.00;74.20
71367;DHT22;60030;52.274;8.040;2022-08-25T04:16:52;21.80;74.50
71367;DHT22;60030;52.274;8.040;2022-08-25T04:19:20;21.90;74.50
71367;DHT22;60030;52.274;8.040;2022-08-25T04:21:47;22.10;74.10
71367;DHT22;60030;52.274;8.040;2022-08-25T04:24:15;21.70;75.10
71367;DHT22;60030;52.274;8.040;2022-08-25T04:26:45;22.00;75.20
71367;DHT22;60030;52.274;8.040;2022-08-25T04:29:15;21.90;75.00
71367;DHT22;60030;52.274;8.040;2022-08-25T04:31:44;21.90;75.30
71367;DHT22;60030;52.274;8.040;2022-08-25T04:34:12;21.80;75.50
71367;DHT22;60030;52.274;8.040;2022-08-25T04:36:39;21.70;76.10
71367;DHT22;60030;52.274;8.040;2022-08-25T04:39:07;22.00;75.20
71367;DHT22;60030;52.274;8.040;2022-08-25T04:41:35;22.00;75.00
71367;DHT22;60030;52.274;8.040;2022-08-25T04:44:02;21.80;75.90
71367;DHT22;60030;52.274;8.040;2022-08-25T04:46:32;21.80;75.90
71367;DHT22;60030;52.274;8.040;2022-08-25T04:49:02;21.70;76.40
71367;DHT22;60030;52.274;8.040;2022-08-25T04:51:32;21.80;76.10
71367;DHT22;60030;52.274;8.040;2022-08-25T04:54:02;21.80;76.20
71367;DHT22;60030;52.274;8.040;2022-08-25T04:56:31;21.60;76.60
71367;DHT22;60030;52.274;8.040;2022-08-25T04:59:03;21.90;76.30
71367;DHT22;60030;52.274;8.040;2022-08-25T05:01:31;22.00;75.80
71367;DHT22;60030;52.274;8.040;2022-08-25T05:04:00;21.90;76.30
71367;DHT22;60030;52.274;8.040;2022-08-25T05:06:28;21.80;76.60
71367;DHT22;60030;52.274;8.040;2022-08-25T05:08:56;21.70;77.30
71367;DHT22;60030;52.274;8.040;2022-08-25T05:11:25;21.80;76.80
71367;DHT22;60030;52.274;8.040;2022-08-25T05:13:54;21.90;77.00
71367;DHT22;60030;52.274;8.040;2022-08-25T05:16:24;21.70;77.70
71367;DHT22;60030;52.274;8.040;2022-08-25T05:18:53;21.90;76.90
71367;DHT22;60030;52.274;8.040;2022-08-25T05:21:22;22.10;76.40
71367;DHT22;60030;52.274;8.040;2022-08-25T05:23:53;22.00;76.50
71367;DHT22;60030;52.274;8.040;2022-08-25T05:26:22;21.90;76.90
71367;DHT22;60030;52.274;8.040;2022-08-25T05:28:50;21.80;77.40
71367;DHT22;60030;52.274;8.040;2022-08-25T05:31:18;21.80;77.70
71367;DHT22;60030;52.274;8.040;2022-08-25T05:33:47;22.00;77.20
71367;DHT22;60030;52.274;8.040;2022-08-25T05:36:15;21.80;78.10
71367;DHT22;60030;52.274;8.040;2022-08-25T05:38:42;21.70;78.40
71367;DHT22;60030;52.274;8.040;2022-08-25T05:41:13;21.70;78.50
71367;DHT22;60030;52.274;8.040;2022-08-25T05:43:42;21.80;78.20
71367;DHT22;60030;52.274;8.040;2022-08-25T05:46:10;21.90;78.20
71367;DHT22;60030;52.274;8.040;2022-08-25T05:48:38;21.90;78.00
71367;DHT22;60030;52.274;8.040;2022-08-25T05:51:08;22.00;77.70
71367;DHT22;60030;52.274;8.040;2022-08-25T05:53:36;22.00;77.80
71367;DHT22;60030;52.274;8.040;2022-08-25T05:56:04;22.20;77.30
71367;DHT22;60030;52.274;8.040;2022-08-25T05:58:31;22.10;77.70
71367;DHT22;60030;52.274;8.040;2022-08-25T06:00:59;22.00;78.50
71367;DHT22;60030;52.274;8.040;2022-08-25T06:03:46;21.90;78.40
71367;DHT22;60030;52.274;8.040;2022-08-25T06:06:15;22.00;78.40
71367;DHT22;60030;52.274;8.040;2022-08-25T06:08:42;22.20;78.00
71367;DHT22;60030;52.274;8.040;2022-08-25T06:11:09;22.20;78.10
71367;DHT22;60030;52.274;8.040;2022-08-25T06:13:37;22.20;78.30
71367;DHT22;60030;52.274;8.040;2022-08-25T06:16:04;22.30;78.20
71367;DHT22;60030;52.274;8.040;2022-08-25T06:18:31;22.30;78.50
71367;DHT22;60030;52.274;8.040;2022-08-25T06:20:59;22.20;78.70
71367;DHT22;60030;52.274;8.040;2022-08-25T06:23:36;22.20;79.00
71367;DHT22;60030;52.274;8.040;2022-08-25T06:26:03;22.20;79.30
71367;DHT22;60030;52.274;8.040;2022-08-25T06:28:31;22.20;79.40
71367;DHT22;60030;52.274;8.040;2022-08-25T06:30:58;22.30;79.00
71367;DHT22;60030;52.274;8.040;2022-08-25T06:33:25;22.50;78.80
71367;DHT22;60030;52.274;8.040;2022-08-25T06:35:53;22.50;78.90
71367;DHT22;60030;52.274;8.040;2022-08-25T06:38:20;22.50;79.40
71367;DHT22;60030;52.274;8.040;2022-08-25T06:40:49;22.60;79.30
71367;DHT22;60030;52.274;8.040;2022-08-25T06:43:17;22.60;79.70
71367;DHT22;60030;52.274;8.040;2022-08-25T06:45:44;22.50;80.10
71367;DHT22;60030;52.274;8.040;2022-08-25T06:48:11;22.60;80.20
71367;DHT22;60030;52.274;8.040;2022-08-25T06:50:39;22.60;80.80
71367;DHT22;60030;52.274;8.040;2022-08-25T06:53:06;22.60;80.50
71367;DHT22;60030;52.274;8.040;2022-08-25T06:55:34;22.80;80.20
71367;DHT22;60030;52.274;8.040;2022-08-25T06:58:03;22.80;80.30
71367;DHT22;60030;52.274;8.040;2022-08-25T07:00:31;22.80;80.60
71367;DHT22;60030;52.274;8.040;2022-08-25T07:02:58;22.70;81.50
71367;DHT22;60030;52.274;8.040;2022-08-25T07:05:26;22.80;81.40
71367;DHT22;60030;52.274;8.040;2022-08-25T07:07:54;22.80;81.90
71367;DHT22;60030;52.274;8.040;2022-08-25T07:10:21;22.70;82.30
71367;DHT22;60030;52.274;8.040;2022-08-25T07:12:48;22.80;82.40
71367;DHT22;60030;52.274;8.040;2022-08-25T07:15:17;22.90;82.50
71367;DHT22;60030;52.274;8.040;2022-08-25T07:17:45;22.90;83.10
71367;DHT22;60030;52.274;8.040;2022-08-25T07:20:12;22.90;83.70
71367;DHT22;60030;52.274;8.040;2022-08-25T07:22:39;23.00;83.50
71367;DHT22;60030;52.274;8.040;2022-08-25T07:25:07;23.00;83.40
71367;DHT22;60030;52.274;8.040;2022-08-25T07:27:36;23.00;84.00
71367;DHT22;60030;52.274;8.040;2022-08-25T07:30:05;23.00;84.70
71367;DHT22;60030;52.274;8.040;2022-08-25T07:32:34;23.10;85.10
71367;DHT22;60030;52.274;8.040;2022-08-25T07:35:01;23.20;84.90
71367;DHT22;60030;52.274;8.040;2022-08-25T07:37:45;23.20;84.90
71367;DHT22;60030;52.274;8.040;2022-08-25T07:40:15;23.30;85.20
71367;DHT22;60030;52.274;8.040;2022-08-25T07:42:42;23.30;84.90
71367;DHT22;60030;52.274;8.040;2022-08-25T07:45:10;23.40;85.40
71367;DHT22;60030;52.274;8.040;2022-08-25T07:47:39;23.40;85.60
71367;DHT22;60030;52.274;8.040;2022-08-25T07:50:08;23.50;85.70
71367;DHT22;60030;52.274;8.040;2022-08-25T07:52:37;23.60;86.00
71367;DHT22;60030;52.274;8.040;2022-08-25T07:55:05;23.60;86.00
71367;DHT22;60030;52.274;8.040;2022-08-25T07:57:33;23.70;86.20
71367;DHT22;60030;52.274;8.040;2022-08-25T08:00:00;23.70;86.40
71367;DHT22;60030;52.274;8.040;2022-08-25T08:02:40;23.80;86.40
71367;DHT22;60030;52.274;8.040;2022-08-25T08:05:08;23.80;86.60
71367;DHT22;60030;52.274;8.040;2022-08-25T08:07:35;23.90;86.70
71367;DHT22;60030;52.274;8.040;2022-08-25T08:10:03;23.90;86.80
71367;DHT22;60030;52.274;8.040;2022-08-25T08:12:31;24.00;87.00
71367;DHT22;60030;52.274;8.040;2022-08-25T08:14:59;24.20;87.20
71367;DHT22;60030;52.274;8.040;2022-08-25T08:17:26;24.20;87.30
71367;DHT22;60030;52.274;8.040;2022-08-25T08:19:54;24.30;87.20
71367;DHT22;60030;52.274;8.040;2022-08-25T08:22:21;24.30;87.30
71367;DHT22;60030;52.274;8.040;2022-08-25T08:24:48;24.40;87.10
71367;DHT22;60030;52.274;8.040;2022-08-25T08:27:16;24.50;87.60
71367;DHT22;60030;52.274;8.040;2022-08-25T08:29:43;24.50;87.40
71367;DHT22;60030;52.274;8.040;2022-08-25T08:32:10;24.60;87.60
71367;DHT22;60030;52.274;8.040;2022-08-25T08:34:39;24.60;87.80
71367;DHT22;60030;52.274;8.040;2022-08-25T08:37:08;24.70;87.60
71367;DHT22;60030;52.274;8.040;2022-08-25T08:39:35;24.80;87.90
71367;DHT22;60030;52.274;8.040;2022-08-25T08:42:18;24.90;87.80
71367;DHT22;60030;52.274;8.040;2022-08-25T08:45:05;25.00;87.80
71367;DHT22;60030;52.274;8.040;2022-08-25T08:47:46;25.00;88.00
71367;DHT22;60030;52.274;8.040;2022-08-25T08:50:25;25.20;87.80
71367;DHT22;60030;52.274;8.040;2022-08-25T08:52:59;25.20;87.60
71367;DHT22;60030;52.274;8.040;2022-08-25T08:55:31;25.40;88.20
71367;DHT22;60030;52.274;8.040;2022-08-25T08:58:01;25.60;87.70
71367;DHT22;60030;52.274;8.040;2022-08-25T09:00:30;25.60;87.70
71367;DHT22;60030;52.274;8.040;2022-08-25T09:03:04;25.60;87.50
71367;DHT22;60030;52.274;8.040;2022-08-25T09:05:43;25.70;87.20
71367;DHT22;60030;52.274;8.040;2022-08-25T09:08:13;25.80;86.90
71367;DHT22;60030;52.274;8.040;2022-08-25T09:10:53;25.80;87.00
71367;DHT22;60030;52.274;8.040;2022-08-25T09:13:35;25.90;87.40
71367;DHT22;60030;52.274;8.040;2022-08-25T09:16:11;26.00;87.30
71367;DHT22;60030;52.274;8.040;2022-08-25T09:19:07;26.10;87.60
71367;DHT22;60030;52.274;8.040;2022-08-25T09:21:42;26.20;86.60
71367;DHT22;60030;52.274;8.040;2022-08-25T09:24:31;26.30;86.50
71367;DHT22;60030;52.274;8.040;2022-08-25T09:27:08;26.30;86.60
71367;DHT22;60030;52.274;8.040;2022-08-25T09:29:50;26.40;86.30
71367;DHT22;60030;52.274;8.040;2022-08-25T09:32:23;26.40;85.80
71367;DHT22;60030;52.274;8.040;2022-08-25T09:34:52;26.50;85.60
71367;DHT22;60030;52.274;8.040;2022-08-25T09:37:21;26.50;85.20
71367;DHT22;60030;52.274;8.040;2022-08-25T09:39:50;26.60;84.70
71367;DHT22;60030;52.274;8.040;2022-08-25T09:42:18;26.70;84.30
71367;DHT22;60030;52.274;8.040;2022-08-25T09:44:46;26.80;84.10
71367;DHT22;60030;52.274;8.040;2022-08-25T09:47:20;26.90;83.90
71367;DHT22;60030;52.274;8.040;2022-08-25T09:49:49;27.00;83.20
71367;DHT22;60030;52.274;8.040;2022-08-25T09:52:39;27.10;83.30
71367;DHT22;60030;52.274;8.040;2022-08-25T09:55:26;27.20;82.50
71367;DHT22;60030;52.274;8.040;2022-08-25T09:57:56;27.20;80.80
71367;DHT22;60030;52.274;8.040;2022-08-25T10:00:26;27.30;81.60
71367;DHT22;60030;52.274;8.040;2022-08-25T10:03:04;27.30;80.80
71367;DHT22;60030;52.274;8.040;2022-08-25T10:05:33;27.20;81.50
71367;DHT22;60030;52.274;8.040;2022-08-25T10:08:03;27.30;80.80
71367;DHT22;60030;52.274;8.040;2022-08-25T10:10:42;27.50;81.00
71367;DHT22;60030;52.274;8.040;2022-08-25T10:13:17;27.50;80.80
71367;DHT22;60030;52.274;8.040;2022-08-25T10:15:45;27.70;80.60
71367;DHT22;60030;52.274;8.040;2022-08-25T10:18:21;27.80;79.90
71367;DHT22;60030;52.274;8.040;2022-08-25T10:21:07;28.00;79.20
71367;DHT22;60030;52.274;8.040;2022-08-25T10:23:36;28.00;79.60
71367;DHT22;60030;52.274;8.040;2022-08-25T10:26:16;27.90;79.00
71367;DHT22;60030;52.274;8.040;2022-08-25T10:28:54;28.20;78.10
71367;DHT22;60030;52.274;8.040;2022-08-25T10:31:29;28.10;78.40
71367;DHT22;60030;52.274;8.040;2022-08-25T10:34:08;28.40;77.90
71367;DHT22;60030;52.274;8.040;2022-08-25T10:36:45;28.40;77.30
71367;DHT22;60030;52.274;8.040;2022-08-25T10:39:24;28.50;76.00
71367;DHT22;60030;52.274;8.040;2022-08-25T10:41:59;28.60;75.10
71367;DHT22;60030;52.274;8.040;2022-08-25T10:44:33;28.60;74.90
71367;DHT22;60030;52.274;8.040;2022-08-25T10:47:56;28.80;74.80
71367;DHT22;60030;52.274;8.040;2022-08-25T10:50:29;28.90;73.90
71367;DHT22;60030;52.274;8.040;2022-08-25T10:53:19;28.90;74.30
71367;DHT22;60030;52.274;8.040;2022-08-25T10:55:59;29.00;73.50
71367;DHT22;60030;52.274;8.040;2022-08-25T10:58:45;29.20;73.00
71367;DHT22;60030;52.274;8.040;2022-08-25T11:01:24;29.40;71.90
71367;DHT22;60030;52.274;8.040;2022-08-25T11:03:56;29.60;71.60
71367;DHT22;60030;52.274;8.040;2022-08-25T11:06:31;29.70;71.20
71367;DHT22;60030;52.274;8.040;2022-08-25T11:09:04;29.90;70.40
71367;DHT22;60030;52.274;8.040;2022-08-25T11:11:37;30.00;69.60
71367;DHT22;60030;52.274;8.040;2022-08-25T11:14:09;30.10;69.40
71367;DHT22;60030;52.274;8.040;2022-08-25T11:16:40;30.20;68.90
71367;DHT22;60030;52.274;8.040;2022-08-25T11:19:15;30.30;68.20
71367;DHT22;60030;52.274;8.040;2022-08-25T11:21:48;30.50;67.10
71367;DHT22;60030;52.274;8.040;2022-08-25T11:24:35;30.70;67.10
71367;DHT22;60030;52.274;8.040;2022-08-25T11:27:10;30.90;66.80
71367;DHT22;60030;52.274;8.040;2022-08-25T11:29:41;30.90;65.60
71367;DHT22;60030;52.274;8.040;2022-08-25T11:32:21;31.00;64.90
71367;DHT22;60030;52.274;8.040;2022-08-25T11:34:49;31.30;63.50
71367;DHT22;60030;52.274;8.040;2022-08-25T11:37:20;31.40;64.00
71367;DHT22;60030;52.274;8.040;2022-08-25T11:40:11;31.60;64.50
71367;DHT22;60030;52.274;8.040;2022-08-25T11:42:52;31.70;63.50
71367;DHT22;60030;52.274;8.040;2022-08-25T11:45:41;31.90;63.60
71367;DHT22;60030;52.274;8.040;2022-08-25T11:48:20;32.00;63.30
71367;DHT22;60030;52.274;8.040;2022-08-25T11:50:58;31.60;62.20
71367;DHT22;60030;52.274;8.040;2022-08-25T11:53:27;31.80;61.80
71367;DHT22;60030;52.274;8.040;2022-08-25T11:55:57;31.90;62.10
71367;DHT22;60030;52.274;8.040;2022-08-25T11:58:47;32.00;61.50
71367;DHT22;60030;52.274;8.040;2022-08-25T12:04:37;32.80;59.70
71367;DHT22;60030;52.274;8.040;2022-08-25T12:10:17;32.80;59.40
71367;DHT22;60030;52.274;8.040;2022-08-25T12:13:00;32.30;59.30
71367;DHT22;60030;52.274;8.040;2022-08-25T12:15:32;32.50;59.30
71367;DHT22;60030;52.274;8.040;2022-08-25T12:18:08;33.00;58.50
71367;DHT22;60030;52.274;8.040;2022-08-25T12:21:12;33.20;58.80
71367;DHT22;60030;52.274;8.040;2022-08-25T12:23:43;32.90;60.00
71367;DHT22;60030;52.274;8.040;2022-08-25T12:26:22;33.00;59.10
71367;DHT22;60030;52.274;8.040;2022-08-25T12:29:02;33.00;59.30
71367;DHT22;60030;52.274;8.040;2022-08-25T12:37:33;33.70;57.90
71367;DHT22;60030;52.274;8.040;2022-08-25T12:40:02;34.10;56.40
71367;DHT22;60030;52.274;8.040;2022-08-25T12:42:31;34.20;57.10
71367;DHT22;60030;52.274;8.040;2022-08-25T12:45:12;34.20;56.60
71367;DHT22;60030;52.274;8.040;2022-08-25T12:47:40;34.30;56.30
71367;DHT22;60030;52.274;8.040;2022-08-25T12:50:37;34.30;56.40
71367;DHT22;60030;52.274;8.040;2022-08-25T12:53:16;34.40;56.30
71367;DHT22;60030;52.274;8.040;2022-08-25T12:55:47;34.40;56.30
71367;DHT22;60030;52.274;8.040;2022-08-25T12:58:15;34.90;55.80
71367;DHT22;60030;52.274;8.040;2022-08-25T13:01:11;35.20;55.50
71367;DHT22;60030;52.274;8.040;2022-08-25T13:03:59;35.10;54.90
71367;DHT22;60030;52.274;8.040;2022-08-25T13:06:38;35.10;55.40
71367;DHT22;60030;52.274;8.040;2022-08-25T13:12:16;35.70;54.30
71367;DHT22;60030;52.274;8.040;2022-08-25T13:14:51;36.20;53.10
71367;DHT22;60030;52.274;8.040;2022-08-25T13:17:25;36.90;51.60
71367;DHT22;60030;52.274;8.040;2022-08-25T13:20:15;37.70;50.60
71367;DHT22;60030;52.274;8.040;2022-08-25T13:22:45;38.30;48.60
71367;DHT22;60030;52.274;8.040;2022-08-25T13:25:17;38.30;49.90
71367;DHT22;60030;52.274;8.040;2022-08-25T13:27:49;38.40;48.80
71367;DHT22;60030;52.274;8.040;2022-08-25T13:30:26;39.00;48.30
71367;DHT22;60030;52.274;8.040;2022-08-25T13:32:54;39.30;46.90
71367;DHT22;60030;52.274;8.040;2022-08-25T13:35:23;39.30;46.70
71367;DHT22;60030;52.274;8.040;2022-08-25T13:37:51;39.60;46.60
71367;DHT22;60030;52.274;8.040;2022-08-25T13:40:23;40.20;45.50
71367;DHT22;60030;52.274;8.040;2022-08-25T13:42:54;40.60;44.80
71367;DHT22;60030;52.274;8.040;2022-08-25T13:45:24;41.00;44.00
71367;DHT22;60030;52.274;8.040;2022-08-25T13:47:52;41.00;43.30
71367;DHT22;60030;52.274;8.040;2022-08-25T13:50:32;41.40;43.00
71367;DHT22;60030;52.274;8.040;2022-08-25T13:53:02;41.60;42.60
71367;DHT22;60030;52.274;8.040;2022-08-25T13:55:33;41.80;42.90
71367;DHT22;60030;52.274;8.040;2022-08-25T13:58:04;41.90;42.90
71367;DHT22;60030;52.274;8.040;2022-08-25T14:00:39;42.00;42.00
71367;DHT22;60030;52.274;8.040;2022-08-25T14:03:06;42.10;41.90
71367;DHT22;60030;52.274;8.040;2022-08-25T14:05:37;42.30;41.70
71367;DHT22;60030;52.274;8.040;2022-08-25T14:08:07;42.10;41.90
71367;DHT22;60030;52.274;8.040;2022-08-25T14:11:04;42.00;41.50
71367;DHT22;60030;52.274;8.040;2022-08-25T14:13:36;41.50;42.40
71367;DHT22;60030;52.274;8.040;2022-08-25T14:16:11;41.80;42.20
71367;DHT22;60030;52.274;8.040;2022-08-25T14:18:45;42.00;41.80
71367;DHT22;60030;52.274;8.040;2022-08-25T14:21:14;42.20;41.30
71367;DHT22;60030;52.274;8.040;2022-08-25T14:23:41;41.80;41.40
71367;DHT22;60030;52.274;8.040;2022-08-25T14:26:08;41.50;42.00
71367;DHT22;60030;52.274;8.040;2022-08-25T14:28:37;41.60;41.70
71367;DHT22;60030;52.274;8.040;2022-08-25T14:31:06;41.20;42.40
71367;DHT22;60030;52.274;8.040;2022-08-25T14:33:37;40.80;42.80
71367;DHT22;60030;52.274;8.040;2022-08-25T14:36:06;41.10;42.70
71367;DHT22;60030;52.274;8.040;2022-08-25T14:38:34;40.10;43.10
71367;DHT22;60030;52.274;8.040;2022-08-25T14:41:04;38.60;44.90
71367;DHT22;60030;52.274;8.040;2022-08-25T14:43:31;37.60;46.10
71367;DHT22;60030;52.274;8.040;2022-08-25T14:46:08;37.60;46.60
71367;DHT22;60030;52.274;8.040;2022-08-25T14:48:40;38.40;45.60
71367;DHT22;60030;52.274;8.040;2022-08-25T14:51:10;38.70;45.40
71367;DHT22;60030;52.274;8.040;2022-08-25T14:53:38;38.90;45.10
71367;DHT22;60030;52.274;8.040;2022-08-25T14:56:05;37.80;46.10
71367;DHT22;60030;52.274;8.040;2022-08-25T14:58:33;36.70;48.00
71367;DHT22;60030;52.274;8.040;2022-08-25T15:01:01;36.00;49.40
71367;DHT22;60030;52.274;8.040;2022-08-25T15:03:33;35.50;50.00
71367;DHT22;60030;52.274;8.040;2022-08-25T15:06:02;35.90;49.50
71367;DHT22;60030;52.274;8.040;2022-08-25T15:08:29;36.00;49.30
71367;DHT22;60030;52.274;8.040;2022-08-25T15:11:14;35.90;49.30
71367;DHT22;60030;52.274;8.040;2022-08-25T15:13:41;35.50;49.60
71367;DHT22;60030;52.274;8.040;2022-08-25T15:16:12;35.70;49.60
71367;DHT22;60030;52.274;8.040;2022-08-25T15:18:42;35.70;49.00
71367;DHT22;60030;52.274;8.040;2022-08-25T15:21:09;35.70;49.20
71367;DHT22;60030;52.274;8.040;2022-08-25T15:23:37;36.00;48.80
71367;DHT22;60030;52.274;8.040;2022-08-25T15:26:04;36.00;48.10
71367;DHT22;60030;52.274;8.040;2022-08-25T15:28:34;35.90;48.30
71367;DHT22;60030;52.274;8.040;2022-08-25T15:31:01;36.20;48.20
71367;DHT22;60030;52.274;8.040;2022-08-25T15:33:30;36.30;48.10
71367;DHT22;60030;52.274;8.040;2022-08-25T15:35:57;36.90;47.70
71367;DHT22;60030;52.274;8.040;2022-08-25T15:38:24;39.10;44.30
71367;DHT22;60030;52.274;8.040;2022-08-25T15:40:51;40.80;42.10
71367;DHT22;60030;52.274;8.040;2022-08-25T15:43:18;41.80;41.10
71367;DHT22;60030;52.274;8.040;2022-08-25T15:45:47;42.20;39.50
71367;DHT22;60030;52.274;8.040;2022-08-25T15:48:15;42.50;39.00
71367;DHT22;60030;52.274;8.040;2022-08-25T15:50:43;42.30;39.10
71367;DHT22;60030;52.274;8.040;2022-08-25T15:53:12;41.20;40.30
71367;DHT22;60030;52.274;8.040;2022-08-25T15:55:39;39.90;42.10
71367;DHT22;60030;52.274;8.040;2022-08-25T15:58:06;38.80;43.70
71367;DHT22;60030;52.274;8.040;2022-08-25T16:00:33;38.20;44.50
71367;DHT22;60030;52.274;8.040;2022-08-25T16:03:01;37.90;44.90
71367;DHT22;60030;52.274;8.040;2022-08-25T16:05:28;37.70;45.10
71367;DHT22;60030;52.274;8.040;2022-08-25T16:07:56;37.30;45.70
71367;DHT22;60030;52.274;8.040;2022-08-25T16:10:23;37.00;46.20
71367;DHT22;60030;52.274;8.040;2022-08-25T16:12:52;36.90;46.20
71367;DHT22;60030;52.274;8.040;2022-08-25T16:15:19;36.90;46.40
71367;DHT22;60030;52.274;8.040;2022-08-25T16:17:46;37.00;46.10